ADDS METAR Data INFO
IDs: Format: Raw Decoded Include TAF

Data at: 0943 UTC 25 Jun 2018

KBTR 250853Z AUTO 14005KT 9SM CLR 26/24 A3001 RMK AO2 SLP159 T02560239 55001
KBTR 250753Z AUTO 18004KT 9SM CLR 26/24 A3000 RMK AO2 SLP157 T02560244
KBTR 250653Z AUTO 15004KT 10SM CLR 26/24 A3000 RMK AO2 SLP158 T02610244
KBTR 250553Z AUTO 17005KT 10SM CLR 27/24 A3001 RMK AO2 SLP160 T02670244 10322 20267 403390256 50006
KBTR 250453Z 18005KT 10SM CLR 27/24 A3001 RMK AO2 SLP161 T02720239
KBTR 250353Z 19004KT 10SM CLR 28/24 A3002 RMK AO2 SLP162 T02780239
KBTR 250253Z 20006KT 10SM CLR 28/24 A2999 RMK AO2 SLP154 T02830239 51015
KBTR 250153Z 22008KT 10SM CLR 29/23 A2998 RMK AO2 SLP151 T02940233
KBTR 250142Z 23008KT 10SM FEW003 29/23 A2998 RMK AO2 T02940233
KBTR 250053Z 21011KT 10SM SCT045 31/23 A2995 RMK AO2 SLP142 T03060228
KBTR 242353Z 22007KT 10SM BKN043 32/23 A2995 RMK AO2 SLP138 60000 T03220228 10339 20283 55006
KBTR 242253Z 18012KT 10SM BKN047 33/23 A2994 RMK AO2 SLP138 T03330228
KBTR 242153Z 21012KT 10SM SCT049 BKN060 33/23 A2995 RMK AO2 TSE49 SLP140 T03280228
KBTR 242053Z 17010KT 10SM TS SCT048 33/22 A2996 RMK AO2 LTG DSNT N AND NE SLP145 60000 T03280222 58011
KBTR 241953Z 13003KT 10SM TS BKN045 BKN060 32/24 A2998 RMK AO2 WSHFT 1918 LTG DSNT NE RAB23E39 TSB17 SLP150 P0000 T03220239
KBTR 241938Z 12006KT 10SM -TSRA BKN045 BKN060 29/24 A2998 RMK AO2 WSHFT 1918 LTG DSNT N RAB23 TSB17 P0000 T02940239
KBTR 241918Z 19011KT 10SM TS BKN045 BKN060 32/23 A2998 RMK AO2 TSB17 T03220233
KBTR 241911Z COR 21010KT 10SM BKN045 BKN060 33/23 A2998 RMK AO2 T03280233
KBTR 241853Z 20009KT 10SM VCTS BKN049 BKN060 32/23 A2998 RMK AO2 SLP150 T03220228
KBTR 241753Z 20010KT 10SM BKN046 33/22 A3000 RMK AO2 SLP156 60000 T03280222 10333 20261 50001
KBTR 241653Z COR 19012KT 10SM SCT035 33/23 A3000 RMK AO2 SLP156 T03280233
KBTR 241553Z 22009KT 10SM SCT033 SCT042 SCT050 31/23 A3000 RMK AO2 SLP158 T03110233
KBTR 241453Z 22007KT 10SM BKN020 29/24 A2999 RMK AO2 SLP155 60000 T02940239 52008
KBTR 241353Z 21008G14KT 180V250 9SM BKN016 BKN020 BKN028 29/25 A2999 RMK AO2 SLP154 T02940250
KBTR 241320Z 17010KT 8SM SCT016 BKN020 BKN028 29/26 A2998 RMK AO2 T02890256
KBTR 241256Z 16007KT 7SM FEW012 SCT018 SCT024 28/26 A2997 RMK AO2 T02780256
KBTR 241253Z COR 17007KT 7SM FEW012 SCT018 SCT024 28/26 A2997 RMK AO2 RAB18E27 SLP148 P0000 T02780256
KBTR 241153Z 15004KT 6SM BR BKN016 BKN022 27/25 A2997 RMK AO2 SLP147 T02670250 10267 20256 51006
KBTR 241151Z 13004KT 6SM BR BKN018 BKN024 26/25 A2997 RMK AO2
KBTR 241053Z 14006KT 7SM BKN010 BKN021 26/25 A2996 RMK AO2 SLP142 T02610250
KBTR 240953Z 16004KT 8SM BKN015 BKN020 26/24 A2995 RMK AO2 SLP140 T02610244
KBTR 240909Z AUTO 00000KT 8SM BKN019 26/24 A2995 RMK AO2 T02610244
KBTR 240853Z AUTO 15004KT 9SM SCT019 26/24 A2995 RMK AO2 SLP140 T02560244 51012
KBTR 240753Z AUTO 15004KT 10SM CLR 26/24 A2994 RMK AO2 SLP138 T02610244
KBTR 240653Z AUTO 16005KT 10SM CLR 26/24 A2994 RMK AO2 SLP136 T02610244
KBTR 240553Z AUTO 17008KT 10SM CLR 27/24 A2992 RMK AO2 SLP128 T02670244 10317 20267 403390256 58001
KBTR 240453Z AUTO 18007KT 10SM CLR 27/24 A2993 RMK AO2 SLP133 T02670239
KBTR 240353Z 18006KT 10SM CLR 27/24 A2993 RMK AO2 SLP132 T02720239
KBTR 240253Z 19012KT 10SM CLR 28/23 A2992 RMK AO2 SLP129 T02830233 53017
KBTR 240153Z 21006KT 10SM CLR 29/23 A2989 RMK AO2 SLP121 T02890228
KBTR 240053Z 19011KT 10SM SCT040 30/23 A2988 RMK AO2 SLP116 T03000228
KBTR 232353Z 20011KT 10SM SCT045 32/22 A2987 RMK AO2 SLP112 T03170222 10339 20317 55007
KBTR 232253Z 18013KT 10SM BKN044 BKN055 32/23 A2985 RMK AO2 SLP107 T03220228
KBTR 232153Z 18009KT 10SM SCT030 33/23 A2988 RMK AO2 SLP115 T03280233